Aviation Digital Data Service (ADDS)

Output produced by METARs form (1027 UTC 30 May 2015)
found at http://www.aviationweather.gov/adds/metars/
 
KMIV 300957Z AUTO 00000KT 4SM BR BKN002 18/18 A3022 RMK AO2 T01830178
KMIV 300921Z 3009/3106 00000KT 3SM BR BKN006 
     TEMPO 3009/3012 1SM BR BKN001 
     FM301200 18004KT 3SM BR BKN015 
     FM301400 20006KT P6SM SCT025 
     FM301600 18010G17KT P6SM FEW050 
     FM302200 16006KT P6SM SCT060 BKN120